Time;durP1;ratioP1;P1;durP2;ratioP2;P2;SDS_P1;SDS_P2;PMS_P1;PMS_P2;Temp;Humidity;BMP_temperature;BMP_pressure;BME280_temperature;BME280_humidity;BME280_pressure;Samples;Min_cycle;Max_cycle;Signal;HPM_P1;HPM_P2
2023/12/24 00:02:22;;;;;;;;;0.00;0.00;;;;;11.63;72.16;101553.75;5060060;28;70532;-56
2023/12/24 00:04:49;;;;;;;;;0.00;0.00;;;;;11.62;72.24;101554.69;5061447;28;45303;-56
2023/12/24 00:07:15;;;;;;;;;0.00;0.00;;;;;11.61;72.09;101544.94;5062272;28;45461;-56
2023/12/24 00:09:40;;;;;;;;;0.00;0.00;;;;;11.61;72.31;101552.94;5059475;28;45375;-55
2023/12/24 00:12:06;;;;;;;;;0.00;0.00;;;;;11.62;72.33;101557.34;5059223;28;73836;-55
2023/12/24 00:14:31;;;;;;;;;0.00;0.00;;;;;11.63;72.36;101571.53;5060480;28;45567;-56
2023/12/24 00:16:57;;;;;;;;;0.00;0.00;;;;;11.62;71.95;101568.00;5060125;28;51392;-56
2023/12/24 00:19:22;;;;;;;;;0.00;0.00;;;;;11.61;72.03;101554.75;5059326;28;68535;-56
2023/12/24 00:21:48;;;;;;;;;0.33;0.33;;;;;11.61;72.12;101552.09;5060102;28;60137;-56
2023/12/24 00:24:14;;;;;;;;;0.00;0.00;;;;;11.57;71.84;101552.19;5060355;28;45413;-57
2023/12/24 00:26:39;;;;;;;;;0.00;0.00;;;;;11.56;72.11;101553.16;5065319;28;61900;-54
2023/12/24 00:29:05;;;;;;;;;0.33;0.00;;;;;11.56;72.02;101545.16;5059633;28;45342;-55
2023/12/24 00:31:30;;;;;;;;;0.00;0.00;;;;;11.56;72.18;101549.59;5060420;28;45256;-55
2023/12/24 00:33:55;;;;;;;;;1.33;0.00;;;;;11.56;72.13;101554.94;5057057;28;67728;-55
2023/12/24 00:36:21;;;;;;;;;0.00;0.00;;;;;11.56;72.11;101542.50;5093279;27;45343;-56
2023/12/24 00:38:49;;;;;;;;;0.00;0.00;;;;;11.55;72.15;101545.19;5059397;28;72541;-56
2023/12/24 00:41:15;;;;;;;;;1.00;0.00;;;;;11.55;72.26;101543.41;5059961;28;45321;-56
2023/12/24 00:43:40;;;;;;;;;0.00;0.00;;;;;11.55;72.16;101542.53;5058723;28;45291;-56
2023/12/24 00:46:05;;;;;;;;;2.67;0.00;;;;;11.54;72.14;101531.03;5059981;28;45486;-56
2023/12/24 00:48:31;;;;;;;;;0.00;0.00;;;;;11.52;71.93;101532.88;5059152;28;68160;-55
2023/12/24 00:50:56;;;;;;;;;0.00;0.00;;;;;11.54;72.23;101535.50;5057699;28;69842;-56
2023/12/24 00:53:21;;;;;;;;;0.00;0.00;;;;;11.55;72.31;101543.41;5059465;28;45401;-56
2023/12/24 00:55:47;;;;;;;;;0.00;0.00;;;;;11.56;72.11;101531.84;5060154;28;45444;-57
2023/12/24 00:58:12;;;;;;;;;1.00;1.00;;;;;11.56;72.24;101518.53;5058785;28;61113;-56
2023/12/24 01:00:37;;;;;;;;;0.00;0.00;;;;;11.56;72.32;101528.28;5060160;28;45322;-56
2023/12/24 01:03:03;;;;;;;;;0.00;0.00;;;;;11.54;72.26;101530.16;5058672;28;60745;-56
2023/12/24 01:05:28;;;;;;;;;0.00;0.00;;;;;11.52;72.40;101535.53;5058880;28;45299;-56
2023/12/24 01:07:53;;;;;;;;;0.00;0.00;;;;;11.53;72.36;101531.09;5057351;28;67926;-56
2023/12/24 01:10:19;;;;;;;;;0.00;0.00;;;;;11.53;72.63;101533.75;5059524;28;51341;-57
2023/12/24 01:12:44;;;;;;;;;0.00;0.00;;;;;11.54;72.52;101523.03;5059062;28;56074;-56
2023/12/24 01:15:09;;;;;;;;;0.00;0.00;;;;;11.55;72.53;101523.88;5058347;28;69085;-56
2023/12/24 01:17:35;;;;;;;;;0.00;0.00;;;;;11.55;72.70;101526.56;5058572;28;68671;-56
2023/12/24 01:20:00;;;;;;;;;1.00;1.00;;;;;11.53;72.72;101521.28;5058677;28;56784;-56
2023/12/24 01:22:26;;;;;;;;;0.67;0.67;;;;;11.54;72.73;101524.84;5059559;28;45297;-56
2023/12/24 01:24:51;;;;;;;;;0.00;0.00;;;;;11.54;72.68;101530.16;5061656;28;45656;-56
2023/12/24 01:27:16;;;;;;;;;0.00;0.00;;;;;11.54;72.57;101532.84;5062222;27;55940;-56
2023/12/24 01:29:42;;;;;;;;;0.00;0.00;;;;;11.53;72.60;101539.94;5058405;28;73305;-56
2023/12/24 01:32:07;;;;;;;;;1.00;1.00;;;;;11.51;72.84;101528.50;5058053;28;67920;-56
2023/12/24 01:34:32;;;;;;;;;0.33;0.33;;;;;11.52;73.04;101526.69;5057175;28;70473;-56
2023/12/24 01:36:58;;;;;;;;;1.00;1.00;;;;;11.52;72.70;101516.88;5057796;28;74840;-56
2023/12/24 01:39:23;;;;;;;;;0.00;0.00;;;;;11.53;72.72;101517.78;5059574;28;45433;-56
2023/12/24 01:41:48;;;;;;;;;0.00;0.00;;;;;11.53;72.79;101528.44;5058832;28;45327;-55
2023/12/24 01:44:14;;;;;;;;;0.00;0.00;;;;;11.53;72.74;101515.09;5059331;28;45418;-56
2023/12/24 01:46:40;;;;;;;;;1.00;1.00;;;;;11.54;72.75;101522.19;5056817;28;74497;-56
2023/12/24 01:49:06;;;;;;;;;0.33;0.33;;;;;11.53;72.83;101518.63;5091456;27;45360;-56
2023/12/24 01:51:31;;;;;;;;;1.00;1.00;;;;;11.53;72.89;101520.44;5057963;28;45452;-56
2023/12/24 01:53:57;;;;;;;;;0.00;0.00;;;;;11.52;72.79;101511.56;5091371;27;45552;-56
2023/12/24 01:56:24;;;;;;;;;0.00;0.00;;;;;11.51;72.74;101509.84;5057701;28;75557;-56
2023/12/24 01:58:50;;;;;;;;;0.67;0.67;;;;;11.50;72.57;101513.44;5057741;28;71354;-55
2023/12/24 02:01:16;;;;;;;;;0.00;0.00;;;;;11.48;72.44;101498.44;5090901;27;67093;-56
2023/12/24 02:03:41;;;;;;;;;0.00;0.00;;;;;11.47;72.58;101492.28;5058182;28;67724;-56
2023/12/24 02:06:08;;;;;;;;;0.00;0.00;;;;;11.48;72.64;101488.66;5049842;28;74886;-56
2023/12/24 02:08:36;;;;;;;;;0.00;0.00;;;;;11.46;72.48;101492.31;5091627;27;45535;-56
2023/12/24 02:11:05;;;;;;;;;0.00;0.00;;;;;11.44;72.70;101496.84;5057922;28;45376;-56
2023/12/24 02:13:33;;;;;;;;;0.00;0.00;;;;;11.41;72.54;101482.72;5058725;28;45430;-56
2023/12/24 02:16:01;;;;;;;;;0.00;0.00;;;;;11.40;72.66;101478.31;5058150;28;45454;-55
2023/12/24 02:18:26;;;;;;;;;0.00;0.00;;;;;11.39;72.41;101479.28;5059030;28;45340;-56
2023/12/24 02:20:52;;;;;;;;;0.00;0.00;;;;;11.37;72.70;101483.78;5058333;28;45549;-56
2023/12/24 02:23:17;;;;;;;;;0.00;0.00;;;;;11.39;72.63;101481.06;5091120;27;66666;-56
2023/12/24 02:25:43;;;;;;;;;0.00;0.00;;;;;11.37;72.76;101480.28;5063117;28;75849;-56
2023/12/24 02:28:21;;;;;;;;;0.33;0.00;;;;;11.38;72.85;101482.88;5090756;27;53322;-56
2023/12/24 02:30:58;;;;;;;;;0.00;0.00;;;;;11.38;72.96;101503.28;5091348;27;45518;-56
2023/12/24 02:33:27;;;;;;;;;0.00;0.00;;;;;11.38;72.63;101509.50;5074388;28;45500;-56
2023/12/24 02:35:52;;;;;;;;;0.00;0.00;;;;;11.37;72.84;101507.75;5038351;28;48029;-56
2023/12/24 02:38:18;;;;;;;;;0.00;0.00;;;;;11.39;72.85;101518.34;5039899;28;70919;-56
2023/12/24 02:40:43;;;;;;;;;1.00;1.00;;;;;11.37;72.99;101512.25;5024374;28;67845;-56
2023/12/24 02:43:08;;;;;;;;;0.00;0.00;;;;;11.38;72.86;101514.84;5057170;28;69071;-56
2023/12/24 02:45:35;;;;;;;;;0.00;0.00;;;;;11.39;73.05;101497.94;5057275;28;75259;-56
2023/12/24 02:48:00;;;;;;;;;0.00;0.00;;;;;11.40;72.91;101493.44;5058005;28;45446;-56
2023/12/24 02:50:26;;;;;;;;;0.00;0.00;;;;;11.40;72.98;101480.13;5057581;28;68067;-55
2023/12/24 02:52:51;;;;;;;;;1.00;1.00;;;;;11.41;73.09;101480.06;5057907;28;45403;-56
2023/12/24 02:55:17;;;;;;;;;1.00;1.00;;;;;11.40;72.93;101490.78;5058029;28;46063;-57
2023/12/24 02:57:42;;;;;;;;;0.00;0.00;;;;;11.39;73.05;101476.63;5059692;28;72104;-56
2023/12/24 03:00:08;;;;;;;;;0.00;0.00;;;;;11.38;72.99;101466.00;5042406;28;69260;-56
2023/12/24 03:02:34;;;;;;;;;0.33;0.33;;;;;11.35;73.34;101464.34;5062296;28;45483;-56
2023/12/24 03:04:59;;;;;;;;;0.00;0.00;;;;;11.35;73.23;101472.31;5056644;28;46594;-56
2023/12/24 03:07:24;;;;;;;;;0.00;0.00;;;;;11.35;73.29;101469.66;5060905;28;69017;-56
2023/12/24 03:09:50;;;;;;;;;0.00;0.00;;;;;11.37;73.48;101464.28;5060603;28;63793;-56
2023/12/24 03:12:17;;;;;;;;;2.00;0.67;;;;;11.36;73.38;101463.41;5061711;28;45451;-56
2023/12/24 03:14:42;;;;;;;;;0.00;0.00;;;;;11.38;73.42;101471.31;5076772;28;45467;-56
2023/12/24 03:17:07;;;;;;;;;0.33;0.33;;;;;11.35;73.47;101475.00;5061520;28;45475;-56
2023/12/24 03:19:33;;;;;;;;;0.00;0.00;;;;;11.34;73.61;101480.38;5076676;28;60503;-56
2023/12/24 03:21:59;;;;;;;;;0.00;0.00;;;;;11.32;73.67;101456.50;5061546;28;45511;-56
2023/12/24 03:24:24;;;;;;;;;0.00;0.00;;;;;11.31;73.54;101452.09;5076009;28;75684;-56
2023/12/24 03:26:49;;;;;;;;;0.00;0.00;;;;;11.31;73.61;101453.91;5063914;28;67918;-56
2023/12/24 03:29:16;;;;;;;;;0.00;0.00;;;;;11.30;73.79;101450.34;5061886;28;45229;-56
2023/12/24 03:31:41;;;;;;;;;0.00;0.00;;;;;11.30;73.94;101444.16;5046707;28;45431;-56
2023/12/24 03:34:06;;;;;;;;;0.00;0.00;;;;;11.28;73.96;101438.91;5060734;28;46116;-56
2023/12/24 03:36:32;;;;;;;;;0.00;0.00;;;;;11.24;74.06;101448.81;5061364;28;45348;-56
2023/12/24 03:38:57;;;;;;;;;2.00;0.00;;;;;11.24;74.12;101445.31;5059805;28;45368;-55
2023/12/24 03:41:23;;;;;;;;;1.00;0.00;;;;;11.25;74.19;101441.69;5060234;28;65276;-57
2023/12/24 03:43:48;;;;;;;;;2.00;1.00;;;;;11.25;74.02;101444.34;5060870;28;57637;-56
2023/12/24 03:46:18;;;;;;;;;0.00;0.00;;;;;11.24;73.97;101445.31;5059842;28;46105;-57
2023/12/24 03:48:44;;;;;;;;;0.00;0.00;;;;;11.23;74.32;101446.22;5061467;28;45642;-56
2023/12/24 03:51:11;;;;;;;;;0.00;0.00;;;;;11.23;74.69;101438.25;5092642;27;69490;-56
2023/12/24 03:53:37;;;;;;;;;1.00;1.00;;;;;11.23;74.29;101433.78;5060620;28;46099;-56
2023/12/24 03:56:03;;;;;;;;;0.00;0.00;;;;;11.22;74.35;101442.72;5075563;28;45382;-55
2023/12/24 03:58:28;;;;;;;;;0.00;0.00;;;;;11.24;74.37;101439.97;5059612;28;45260;-55
2023/12/24 04:00:53;;;;;;;;;0.00;0.00;;;;;11.22;74.40;101423.19;5060210;28;69124;-56
2023/12/24 04:03:19;;;;;;;;;0.00;0.00;;;;;11.22;74.59;101436.50;5061084;28;72451;-55
2023/12/24 04:05:44;;;;;;;;;0.00;0.00;;;;;11.22;74.46;101425.84;5087434;27;45424;-56
2023/12/24 04:08:10;;;;;;;;;0.00;0.00;;;;;11.22;74.35;101415.19;5057254;28;62905;-56
2023/12/24 04:10:39;;;;;;;;;0.00;0.00;;;;;11.16;74.27;101413.69;5058498;28;72572;-56
2023/12/24 04:13:05;;;;;;;;;0.00;0.00;;;;;11.17;74.08;101409.19;5060202;28;46175;-55
2023/12/24 04:15:31;;;;;;;;;0.00;0.00;;;;;11.16;73.99;101394.16;5060692;28;45437;-55
2023/12/24 04:17:56;;;;;;;;;0.33;0.00;;;;;11.13;74.11;101389.81;5059103;28;69384;-55
2023/12/24 04:20:22;;;;;;;;;0.00;0.00;;;;;11.12;74.28;101382.78;5075655;28;45496;-56
2023/12/24 04:22:47;;;;;;;;;0.67;0.00;;;;;11.11;74.17;101361.53;5062463;28;47903;-56
2023/12/24 04:25:12;;;;;;;;;0.00;0.00;;;;;11.09;74.36;101362.50;5064465;28;66642;-55
2023/12/24 04:27:38;;;;;;;;;2.33;1.00;;;;;11.09;74.21;101357.16;5058768;28;65719;-55
2023/12/24 04:30:03;;;;;;;;;1.67;0.33;;;;;11.13;74.07;101354.34;5059571;28;64804;-56
2023/12/24 04:32:29;;;;;;;;;1.00;1.00;;;;;11.09;73.89;101351.84;5060150;28;45485;-57
2023/12/24 04:34:54;;;;;;;;;1.00;0.00;;;;;11.07;74.11;101352.84;5058650;28;72045;-56
2023/12/24 04:37:19;;;;;;;;;0.00;0.00;;;;;11.05;74.29;101362.69;5058933;28;45438;-56
2023/12/24 04:39:44;;;;;;;;;0.33;0.33;;;;;11.03;74.39;101352.09;5060403;28;45371;-56
2023/12/24 04:42:10;;;;;;;;;0.00;0.00;;;;;11.02;74.48;101362.81;5058441;28;72313;-56
2023/12/24 04:44:38;;;;;;;;;2.00;1.00;;;;;10.95;74.36;101348.03;5059423;28;71067;-56
2023/12/24 04:47:05;;;;;;;;;2.67;1.00;;;;;10.92;74.21;101360.56;5059725;28;45490;-56
2023/12/24 04:49:31;;;;;;;;;2.00;0.00;;;;;10.88;74.51;101376.72;5060391;28;45481;-56
2023/12/24 04:51:56;;;;;;;;;1.00;1.00;;;;;10.81;74.72;101361.91;5089043;27;75059;-56
2023/12/24 04:54:22;;;;;;;;;0.00;0.00;;;;;10.73;74.66;101357.78;5060021;28;45390;-54
2023/12/24 04:56:47;;;;;;;;;1.67;0.00;;;;;10.68;75.19;101364.25;5060132;28;45272;-56
2023/12/24 04:59:13;;;;;;;;;2.00;1.00;;;;;10.65;75.00;101359.03;5059852;28;45458;-56
2023/12/24 05:01:38;;;;;;;;;2.67;1.00;;;;;10.59;75.06;101355.69;5060014;28;45333;-55
2023/12/24 05:04:03;;;;;;;;;2.00;1.00;;;;;10.56;75.26;101354.97;5091295;27;69530;-56
2023/12/24 05:06:29;;;;;;;;;3.33;0.67;;;;;10.56;75.26;101365.63;5049174;28;52262;-55
2023/12/24 05:08:54;;;;;;;;;0.00;0.00;;;;;10.54;75.34;101362.16;5059354;28;45327;-56
2023/12/24 05:11:20;;;;;;;;;0.00;0.00;;;;;10.53;75.63;101371.03;5059572;28;45364;-56
2023/12/24 05:13:45;;;;;;;;;2.00;0.33;;;;;10.52;75.71;101378.19;5059150;28;59163;-55
2023/12/24 05:16:10;;;;;;;;;2.67;1.00;;;;;10.54;75.71;101388.75;5059387;28;45426;-56
2023/12/24 05:18:36;;;;;;;;;2.67;0.67;;;;;10.54;76.00;101373.63;5058744;28;68929;-55
2023/12/24 05:21:01;;;;;;;;;0.00;0.00;;;;;10.55;76.06;101378.03;5057747;28;71957;-55
2023/12/24 05:23:27;;;;;;;;;0.00;0.00;;;;;10.57;76.07;101376.19;5092861;27;45337;-56
2023/12/24 05:25:52;;;;;;;;;2.00;1.00;;;;;10.64;76.09;101376.81;5097428;27;45450;-56
2023/12/24 05:28:18;;;;;;;;;1.33;1.00;;;;;10.68;75.91;101365.09;5058689;28;67675;-56
2023/12/24 05:30:44;;;;;;;;;1.33;1.00;;;;;10.74;75.92;101351.56;5059377;28;46119;-55
2023/12/24 05:33:09;;;;;;;;;0.67;0.33;;;;;10.76;75.65;101357.66;5057890;28;45389;-55
2023/12/24 05:35:35;;;;;;;;;0.00;0.00;;;;;10.76;75.43;101349.66;5058560;28;57690;-56
2023/12/24 05:38:00;;;;;;;;;0.00;0.00;;;;;10.74;75.83;101335.59;5058331;28;67847;-55
2023/12/24 05:40:25;;;;;;;;;0.67;0.67;;;;;10.75;75.69;101337.31;5057865;28;75685;-55
2023/12/24 05:42:51;;;;;;;;;2.00;0.00;;;;;10.76;75.58;101319.53;5058425;28;59990;-56
2023/12/24 05:45:16;;;;;;;;;0.00;0.00;;;;;10.74;75.62;101311.63;5059419;28;45284;-56
2023/12/24 05:47:41;;;;;;;;;1.00;1.00;;;;;10.74;75.54;101314.28;5059424;28;45405;-55
2023/12/24 05:50:10;;;;;;;;;2.00;0.67;;;;;10.74;75.38;101310.75;5057749;28;73352;-55
2023/12/24 05:52:35;;;;;;;;;2.00;1.00;;;;;10.77;75.37;101307.97;5060854;28;68817;-56
2023/12/24 05:55:01;;;;;;;;;2.33;1.00;;;;;10.77;75.50;101310.63;5057593;28;45462;-55
2023/12/24 05:57:26;;;;;;;;;3.00;1.00;;;;;10.80;75.46;101313.16;5058109;28;45182;-56
2023/12/24 05:59:52;;;;;;;;;0.00;0.00;;;;;10.82;75.65;101315.75;5057036;28;46575;-55
2023/12/24 06:02:18;;;;;;;;;2.00;0.67;;;;;10.82;75.62;101311.31;5058529;28;62577;-56
2023/12/24 06:04:43;;;;;;;;;1.00;1.00;;;;;10.84;75.69;101311.25;5058987;28;45562;-55
2023/12/24 06:07:08;;;;;;;;;2.00;2.00;;;;;10.82;75.80;101303.31;5051095;28;64417;-55
2023/12/24 06:09:34;;;;;;;;;2.67;0.00;;;;;10.83;75.63;101304.19;5058459;28;52468;-54
2023/12/24 06:11:59;;;;;;;;;1.00;1.00;;;;;10.80;75.63;101307.84;5058486;28;45472;-55
2023/12/24 06:14:24;;;;;;;;;1.67;1.67;;;;;10.80;75.94;101307.84;5058484;28;58553;-56
2023/12/24 06:16:50;;;;;;;;;1.00;1.00;;;;;10.81;75.82;101306.91;5058684;28;45561;-56
2023/12/24 06:19:15;;;;;;;;;1.00;1.00;;;;;10.84;76.06;101308.56;5058660;28;45951;-55
2023/12/24 06:21:40;;;;;;;;;2.00;2.00;;;;;10.86;75.92;101320.00;5057990;28;73128;-57
2023/12/24 06:24:06;;;;;;;;;2.67;1.00;;;;;10.90;76.06;101313.66;5057716;28;66906;-56
2023/12/24 06:26:32;;;;;;;;;1.00;1.00;;;;;10.93;75.82;101324.16;5064319;28;45287;-56
2023/12/24 06:28:58;;;;;;;;;1.00;1.00;;;;;10.95;76.11;101319.63;5057684;28;45461;-54
2023/12/24 06:31:23;;;;;;;;;0.00;0.00;;;;;10.97;75.99;101316.91;5059209;28;45304;-54
2023/12/24 06:33:49;;;;;;;;;1.00;1.00;;;;;10.97;75.75;101308.91;5094194;27;45358;-56
2023/12/24 06:36:14;;;;;;;;;2.00;0.67;;;;;10.98;75.88;101303.53;5060623;28;54022;-55
2023/12/24 06:38:40;;;;;;;;;2.00;2.00;;;;;10.98;75.74;101306.19;5061819;28;45497;-55
2023/12/24 06:41:05;;;;;;;;;1.00;1.00;;;;;11.00;75.77;101292.81;5060424;28;73041;-55
2023/12/24 06:43:31;;;;;;;;;0.00;0.00;;;;;10.99;75.75;101293.72;5061002;28;68931;-55
2023/12/24 06:45:57;;;;;;;;;3.00;1.00;;;;;11.00;75.85;101300.78;5061814;28;45240;-54
2023/12/24 06:48:22;;;;;;;;;3.00;1.67;;;;;11.00;75.76;101311.44;5060841;28;70314;-55
2023/12/24 06:50:47;;;;;;;;;0.00;0.00;;;;;11.00;75.85;101304.31;5060919;28;71791;-55
2023/12/24 06:53:13;;;;;;;;;2.67;1.67;;;;;11.00;75.71;101303.44;5062624;28;68116;-56
2023/12/24 06:55:38;;;;;;;;;3.00;1.67;;;;;11.01;75.75;101322.00;5061754;28;45233;-55
2023/12/24 06:58:06;;;;;;;;;1.67;1.00;;;;;11.00;75.87;101320.31;5061026;28;45281;-55
2023/12/24 07:00:31;;;;;;;;;1.33;1.00;;;;;10.99;75.76;101321.22;5061801;28;45398;-55
2023/12/24 07:02:57;;;;;;;;;3.00;1.00;;;;;11.01;76.08;101305.19;5059637;28;45387;-55
2023/12/24 07:05:22;;;;;;;;;2.00;0.00;;;;;11.00;75.88;101314.97;5058635;28;45508;-55
2023/12/24 07:07:47;;;;;;;;;1.00;0.00;;;;;11.03;75.79;101314.84;5057419;28;46038;-55
2023/12/24 07:10:13;;;;;;;;;0.00;0.00;;;;;11.05;76.17;101318.28;5060190;28;69882;-55
2023/12/24 07:12:38;;;;;;;;;1.00;1.00;;;;;11.07;76.10;101315.56;5060746;28;67328;-55
2023/12/24 07:15:04;;;;;;;;;1.00;1.00;;;;;11.09;76.18;101313.69;5058611;28;70319;-55
2023/12/24 07:17:29;;;;;;;;;2.00;0.00;;;;;11.11;75.83;101316.28;5061071;28;46573;-55
2023/12/24 07:19:54;;;;;;;;;2.00;1.00;;;;;11.11;75.96;101306.50;5061076;28;56027;-55
2023/12/24 07:22:20;;;;;;;;;0.67;0.00;;;;;11.14;76.04;101318.81;5060661;28;68553;-57
2023/12/24 07:24:46;;;;;;;;;1.00;1.00;;;;;11.13;75.95;101320.59;5061729;28;69468;-55
2023/12/24 07:27:11;;;;;;;;;0.00;0.00;;;;;11.11;76.04;101317.16;5064969;28;45606;-55
2023/12/24 07:29:37;;;;;;;;;0.33;0.00;;;;;11.12;76.10;101315.34;5061157;28;45201;-55
2023/12/24 07:32:02;;;;;;;;;6.33;1.00;;;;;11.12;76.48;101310.91;5076563;28;45308;-55
2023/12/24 07:34:27;;;;;;;;;2.33;0.33;;;;;11.12;76.42;101304.69;5060898;28;45339;-55
2023/12/24 07:36:53;;;;;;;;;4.33;2.00;;;;;11.12;76.42;101315.34;5060462;28;45971;-54
2023/12/24 07:39:18;;;;;;;;;2.00;0.33;;;;;11.12;76.63;101318.00;5060195;28;71744;-55
2023/12/24 07:41:43;;;;;;;;;1.67;1.00;;;;;11.13;76.51;101304.63;5059970;28;69371;-56
2023/12/24 07:44:09;;;;;;;;;1.67;1.67;;;;;11.15;76.52;101315.22;5059576;28;67431;-56
2023/12/24 07:46:35;;;;;;;;;0.33;0.00;;;;;11.12;76.73;101305.59;5060999;28;46099;-55
2023/12/24 07:49:00;;;;;;;;;3.00;1.00;;;;;11.12;76.96;101289.59;5059311;28;45370;-55
2023/12/24 07:51:25;;;;;;;;;0.00;0.00;;;;;11.13;77.41;101303.78;5062777;28;68875;-56
2023/12/24 07:53:51;;;;;;;;;2.33;1.00;;;;;11.11;77.20;101295.84;5060547;28;45449;-56
2023/12/24 07:56:16;;;;;;;;;1.00;0.00;;;;;11.08;77.52;101311.94;5060814;28;46266;-55
2023/12/24 07:58:41;;;;;;;;;2.00;1.00;;;;;11.07;77.68;101307.59;5060868;28;45377;-56
2023/12/24 08:01:07;;;;;;;;;2.33;1.00;;;;;11.09;77.33;101301.25;5059641;28;63715;-56
2023/12/24 08:03:32;;;;;;;;;0.33;0.00;;;;;11.11;77.86;101317.16;5059756;28;69185;-56
2023/12/24 08:05:57;;;;;;;;;3.00;0.67;;;;;11.12;77.59;101308.25;5052269;28;72979;-56
2023/12/24 08:08:23;;;;;;;;;1.67;1.00;;;;;11.12;77.60;101308.25;5060008;28;64531;-56
2023/12/24 08:10:48;;;;;;;;;2.00;1.00;;;;;11.14;77.82;101313.50;5059585;28;66267;-56
2023/12/24 08:13:14;;;;;;;;;1.00;1.00;;;;;11.16;77.85;101325.81;5060502;28;45319;-56
2023/12/24 08:15:39;;;;;;;;;1.00;0.67;;;;;11.18;77.65;101325.75;5060521;28;46403;-55
2023/12/24 08:18:05;;;;;;;;;0.00;0.00;;;;;11.18;77.44;101325.75;5059935;28;45674;-56
2023/12/24 08:20:30;;;;;;;;;3.67;3.00;;;;;11.18;77.51;101320.41;5061610;28;45339;-55
2023/12/24 08:22:55;;;;;;;;;2.33;1.00;;;;;11.18;77.42;101331.06;5060993;28;68341;-55
2023/12/24 08:25:21;;;;;;;;;2.33;1.00;;;;;11.18;77.46;101337.25;5064290;28;46942;-55
2023/12/24 08:27:46;;;;;;;;;1.00;1.00;;;;;11.19;77.46;101317.66;5059939;28;45282;-55
2023/12/24 08:30:12;;;;;;;;;0.00;0.00;;;;;11.21;77.35;101334.47;5057926;28;67997;-56
2023/12/24 08:32:37;;;;;;;;;3.00;1.00;;;;;11.24;77.42;101325.47;5060240;28;45291;-54
2023/12/24 08:35:03;;;;;;;;;3.00;2.00;;;;;11.25;76.97;101325.41;5059228;28;60733;-55
2023/12/24 08:37:29;;;;;;;;;2.00;0.33;;;;;11.28;76.97;101336.81;5060109;28;45299;-56
2023/12/24 08:39:54;;;;;;;;;3.00;1.00;;;;;11.30;76.93;101334.97;5059747;28;45395;-56
2023/12/24 08:42:19;;;;;;;;;5.00;2.00;;;;;11.31;76.68;101331.38;5058660;28;45338;-56
2023/12/24 08:44:45;;;;;;;;;1.67;1.33;;;;;11.32;76.94;101336.63;5059405;28;66226;-56
2023/12/24 08:47:10;;;;;;;;;4.67;2.00;;;;;11.34;76.64;101332.13;5058405;28;45285;-55
2023/12/24 08:49:36;;;;;;;;;1.00;1.00;;;;;11.36;76.55;101346.22;5091031;27;63283;-56
2023/12/24 08:52:01;;;;;;;;;1.00;1.00;;;;;11.38;76.46;101332.81;5060485;28;45723;-56
2023/12/24 08:54:26;;;;;;;;;2.00;2.00;;;;;11.37;76.29;101331.97;5091880;27;46479;-56
2023/12/24 08:56:53;;;;;;;;;0.00;0.00;;;;;11.38;76.48;101331.03;5059448;28;45402;-55
2023/12/24 08:59:18;;;;;;;;;1.00;1.00;;;;;11.42;76.28;101335.28;5060049;28;45367;-55
2023/12/24 09:01:43;;;;;;;;;2.67;0.00;;;;;11.44;76.24;101334.38;5058934;28;66579;-56
2023/12/24 09:04:09;;;;;;;;;2.33;0.67;;;;;11.48;76.22;101344.78;5059111;28;45704;-56
2023/12/24 09:06:36;;;;;;;;;2.67;1.67;;;;;11.51;76.08;101341.13;5051458;28;68180;-56
2023/12/24 09:09:01;;;;;;;;;1.00;1.00;;;;;11.54;76.12;101336.53;5092425;27;45422;-56
2023/12/24 09:11:26;;;;;;;;;1.00;1.00;;;;;11.58;75.78;101326.59;5058630;28;62053;-56
2023/12/24 09:13:52;;;;;;;;;1.00;1.00;;;;;11.64;76.03;101329.00;5058201;28;71524;-55
2023/12/24 09:16:17;;;;;;;;;2.67;1.00;;;;;11.71;75.87;101327.75;5057025;28;73921;-55
2023/12/24 09:18:42;;;;;;;;;1.00;1.00;;;;;11.81;75.62;101328.22;5060106;28;45384;-56
2023/12/24 09:21:08;;;;;;;;;2.33;1.00;;;;;11.88;75.58;101329.63;5058081;28;68071;-56
2023/12/24 09:23:33;;;;;;;;;0.33;0.33;;;;;11.93;74.75;101340.09;5058576;28;71394;-56
2023/12/24 09:25:58;;;;;;;;;0.00;0.00;;;;;11.94;74.98;101341.81;5064516;28;45876;-56
2023/12/24 09:28:24;;;;;;;;;1.00;0.00;;;;;11.94;74.71;101336.47;5059370;28;45302;-56
2023/12/24 09:30:49;;;;;;;;;1.00;1.00;;;;;11.96;74.34;101336.47;5091509;27;45616;-54
2023/12/24 09:33:14;;;;;;;;;1.67;1.67;;;;;11.95;74.60;101338.25;5058326;28;75398;-55
2023/12/24 09:35:42;;;;;;;;;1.00;1.00;;;;;12.00;74.56;101338.03;5057817;28;68443;-55
2023/12/24 09:38:07;;;;;;;;;2.33;2.33;;;;;12.04;74.55;101328.94;5058928;28;45417;-55
2023/12/24 09:40:32;;;;;;;;;2.00;2.00;;;;;12.08;74.53;101320.75;5057803;28;67125;-56
2023/12/24 09:42:59;;;;;;;;;1.67;1.67;;;;;12.11;74.09;101319.72;5058321;28;45560;-56
2023/12/24 09:45:24;;;;;;;;;3.00;2.00;;;;;12.12;74.18;101323.25;5090154;27;45557;-55
2023/12/24 09:47:49;;;;;;;;;2.67;2.00;;;;;12.14;74.14;101313.38;5091786;27;45883;-54
2023/12/24 09:50:15;;;;;;;;;2.67;1.00;;;;;12.17;74.01;101326.56;5090818;27;68937;-55
2023/12/24 09:52:41;;;;;;;;;2.00;2.00;;;;;12.18;73.66;101314.97;5060127;28;46850;-55
2023/12/24 09:55:07;;;;;;;;;2.00;1.67;;;;;12.21;74.06;101323.66;5057027;28;69745;-56
2023/12/24 09:57:32;;;;;;;;;2.00;1.00;;;;;12.29;73.56;101327.75;5058884;28;45277;-56
2023/12/24 09:59:57;;;;;;;;;1.00;1.00;;;;;12.35;73.93;101333.66;5090438;27;63489;-56
2023/12/24 10:02:23;;;;;;;;;2.67;1.00;;;;;12.39;73.49;101332.56;5058818;28;45571;-56
2023/12/24 10:04:48;;;;;;;;;2.00;2.00;;;;;12.45;73.28;101328.75;5057329;28;45296;-56
2023/12/24 10:07:14;;;;;;;;;4.33;1.00;;;;;12.47;73.52;101331.34;5057768;28;45299;-55
2023/12/24 10:09:49;;;;;;;;;0.00;0.00;;;;;12.51;73.63;101335.56;5057409;28;61816;-55
2023/12/24 10:12:15;;;;;;;;;3.00;1.67;;;;;12.51;73.08;101332.91;5057756;28;47430;-54
2023/12/24 10:14:41;;;;;;;;;2.00;2.00;;;;;12.53;73.08;101329.22;5091460;27;45231;-56
2023/12/24 10:17:07;;;;;;;;;2.33;1.33;;;;;12.57;73.75;101330.78;5057262;28;45453;-56
2023/12/24 10:19:34;;;;;;;;;2.00;1.00;;;;;12.59;72.95;101322.69;5057156;28;45311;-56
2023/12/24 10:22:06;;;;;;;;;1.33;1.00;;;;;12.64;72.90;101328.69;5056839;28;46157;-56
2023/12/24 10:24:38;;;;;;;;;1.67;1.00;;;;;12.70;72.46;101319.50;5057798;28;45437;-56
2023/12/24 10:27:14;;;;;;;;;2.33;1.33;;;;;12.76;72.55;101313.00;5052617;28;45913;-57
2023/12/24 10:29:41;;;;;;;;;3.00;1.00;;;;;12.83;72.47;101312.59;5048021;28;45648;-56
2023/12/24 10:32:10;;;;;;;;;2.00;2.00;;;;;12.95;72.64;101318.25;5090446;27;45478;-55
2023/12/24 10:34:37;;;;;;;;;1.00;1.00;;;;;13.08;71.77;101330.03;5056102;28;45419;-56
2023/12/24 10:37:18;;;;;;;;;1.67;1.67;;;;;13.26;71.74;101322.84;5057497;28;45186;-56
2023/12/24 10:39:44;;;;;;;;;1.67;0.67;;;;;13.46;71.49;101307.59;5057083;28;45404;-56
2023/12/24 10:42:09;;;;;;;;;1.00;1.00;;;;;13.55;70.57;101312.44;5057452;28;46441;-56
2023/12/24 10:44:34;;;;;;;;;2.00;1.00;;;;;13.55;70.48;101301.75;5056102;28;75184;-55
2023/12/24 10:47:00;;;;;;;;;2.00;2.00;;;;;13.58;70.60;101320.28;5073348;28;45296;-56
2023/12/24 10:49:25;;;;;;;;;3.00;1.00;;;;;13.54;70.30;101302.69;5057692;28;59592;-56
2023/12/24 10:51:50;;;;;;;;;2.00;2.00;;;;;13.43;69.41;101310.41;5059640;28;45442;-56
2023/12/24 10:54:16;;;;;;;;;3.00;1.67;;;;;13.31;70.43;101323.47;5090769;27;45360;-57
2023/12/24 10:57:02;;;;;;;;;1.00;1.00;;;;;13.23;70.61;101321.22;5056623;28;45296;-56
2023/12/24 11:00:15;;;;;;;;;1.67;1.33;;;;;13.16;70.51;101308.25;5057983;28;45497;-56
2023/12/24 11:02:46;;;;;;;;;1.00;1.00;;;;;13.09;70.79;101313.06;5056888;28;45350;-57
2023/12/24 11:05:11;;;;;;;;;2.00;0.67;;;;;13.06;70.84;101308.75;5037276;28;45439;-55
2023/12/24 11:07:47;;;;;;;;;3.00;3.00;;;;;13.04;70.88;101299.94;5051006;28;45339;-55
2023/12/24 11:10:39;;;;;;;;;1.00;1.00;;;;;13.02;71.59;101293.84;5046489;28;45407;-55
2023/12/24 11:13:12;;;;;;;;;2.33;0.67;;;;;13.00;71.15;101301.03;5072657;28;47334;-59
2023/12/24 11:15:42;;;;;;;;;2.33;2.33;;;;;12.94;71.20;101298.69;5090285;27;45361;-56
2023/12/24 11:18:08;;;;;;;;;2.67;2.33;;;;;12.93;71.43;101286.28;5058007;28;45296;-55
2023/12/24 11:20:41;;;;;;;;;4.67;2.67;;;;;12.89;71.72;101276.69;5061085;28;45605;-56